createdAt,value
2022-11-05T00:01:10.455Z,8.25
2022-11-05T00:03:36.993Z,14.90
2022-11-05T00:06:03.819Z,4.63
2022-11-05T00:08:30.511Z,5.85
2022-11-05T00:10:57.160Z,7.53
2022-11-05T00:13:25.199Z,11.07
2022-11-05T00:15:52.007Z,7.30
2022-11-05T00:18:18.803Z,6.20
2022-11-05T00:20:45.346Z,7.53
2022-11-05T00:23:12.197Z,5.10
2022-11-05T00:25:38.960Z,6.05
2022-11-05T00:28:05.514Z,7.28
2022-11-05T00:30:33.395Z,5.93
2022-11-05T00:33:01.897Z,10.30
2022-11-05T00:35:28.437Z,6.78
2022-11-05T00:37:54.973Z,8.23
2022-11-05T00:40:21.527Z,6.05
2022-11-05T00:42:48.108Z,5.63
2022-11-05T00:45:14.771Z,6.35
2022-11-05T00:47:42.737Z,5.78
2022-11-05T00:50:09.247Z,5.65
2022-11-05T00:52:35.815Z,7.70
2022-11-05T00:55:02.393Z,7.60
2022-11-05T00:57:28.917Z,7.32
2022-11-05T00:59:55.413Z,7.70
2022-11-05T01:02:22.140Z,6.10
2022-11-05T01:04:50.120Z,9.23
2022-11-05T01:07:16.639Z,9.93
2022-11-05T01:09:43.165Z,6.47
2022-11-05T01:12:09.703Z,5.60
2022-11-05T01:14:36.254Z,6.63
2022-11-05T01:17:02.830Z,5.78
2022-11-05T01:19:29.584Z,6.15
2022-11-05T01:21:57.479Z,6.03
2022-11-05T01:24:24.019Z,8.98
2022-11-05T01:26:50.580Z,7.38
2022-11-05T01:29:17.117Z,6.40
2022-11-05T01:31:43.631Z,8.98
2022-11-05T01:34:10.176Z,6.28
2022-11-05T01:36:36.735Z,6.40
2022-11-05T01:39:04.667Z,5.45
2022-11-05T01:41:31.227Z,5.13
2022-11-05T01:43:59.403Z,4.57
2022-11-05T01:46:29.292Z,4.72
2022-11-05T01:49:03.173Z,4.63
2022-11-05T01:51:30.859Z,6.00
2022-11-05T01:54:01.394Z,4.88
2022-11-05T01:56:32.034Z,4.03
2022-11-05T01:59:01.726Z,4.82
2022-11-05T02:01:28.359Z,4.55
2022-11-05T02:03:59.467Z,4.45
2022-11-05T02:06:30.142Z,5.17
2022-11-05T02:09:01.801Z,5.05
2022-11-05T02:11:29.797Z,7.38
2022-11-05T02:13:56.354Z,9.35
2022-11-05T02:16:36.601Z,5.15
2022-11-05T02:19:24.683Z,5.95
2022-11-05T02:22:28.804Z,4.28
2022-11-05T02:25:21.543Z,9.90
2022-11-05T02:28:11.678Z,5.03
2022-11-05T02:30:49.481Z,3.85
2022-11-05T02:33:31.022Z,4.53
2022-11-05T02:36:16.509Z,9.35
2022-11-05T02:38:53.096Z,10.82
2022-11-05T02:41:27.416Z,4.95
2022-11-05T02:44:06.061Z,5.30
2022-11-05T02:46:40.171Z,3.17
2022-11-05T02:49:18.445Z,4.95
2022-11-05T02:51:51.392Z,4.60
2022-11-05T02:54:23.143Z,2.97
2022-11-05T02:56:52.627Z,3.45
2022-11-05T02:59:19.226Z,4.22
2022-11-05T03:01:48.386Z,3.78
2022-11-05T03:04:19.265Z,3.42
2022-11-05T03:07:17.041Z,4.13
2022-11-05T03:10:13.963Z,4.47
2022-11-05T03:12:52.000Z,5.13
2022-11-05T03:15:30.177Z,4.45
2022-11-05T03:18:07.025Z,3.13
2022-11-05T03:20:37.611Z,3.92
2022-11-05T03:23:12.771Z,4.40
2022-11-05T03:25:47.362Z,5.75
2022-11-05T03:28:16.516Z,2.60
2022-11-05T03:30:44.932Z,5.65
2022-11-05T03:33:17.068Z,4.35
2022-11-05T03:35:47.922Z,2.67
2022-11-05T03:38:20.283Z,3.08
2022-11-05T03:40:49.540Z,3.55
2022-11-05T03:43:17.485Z,3.05
2022-11-05T03:45:47.653Z,3.28
2022-11-05T03:48:18.447Z,7.20
2022-11-05T03:50:52.831Z,6.35
2022-11-05T03:53:25.006Z,5.38
2022-11-05T03:55:59.255Z,7.45
2022-11-05T03:58:26.995Z,3.20
2022-11-05T04:00:53.799Z,3.15
2022-11-05T04:03:21.676Z,6.30
2022-11-05T04:05:48.659Z,4.18
2022-11-05T04:08:15.193Z,3.85
2022-11-05T04:10:43.519Z,2.97
2022-11-05T04:13:15.858Z,5.07
2022-11-05T04:15:42.410Z,3.42
2022-11-05T04:18:08.956Z,2.95
2022-11-05T04:20:36.907Z,5.68
2022-11-05T04:23:05.233Z,4.43
2022-11-05T04:25:31.819Z,3.75
2022-11-05T04:27:59.214Z,3.40
2022-11-05T04:30:26.568Z,3.65
2022-11-05T04:32:58.305Z,4.30
2022-11-05T04:35:25.904Z,4.88
2022-11-05T04:37:53.926Z,5.05
2022-11-05T04:40:20.520Z,3.25
2022-11-05T04:42:47.085Z,8.10
2022-11-05T04:45:13.755Z,3.25
2022-11-05T04:47:40.338Z,3.28
2022-11-05T04:50:07.273Z,4.40
2022-11-05T04:52:33.794Z,5.88
2022-11-05T04:55:01.693Z,4.60
2022-11-05T04:57:28.234Z,5.85
2022-11-05T04:59:54.910Z,3.60
2022-11-05T05:02:21.607Z,2.90
2022-11-05T05:04:48.219Z,3.05
2022-11-05T05:07:14.821Z,4.50
2022-11-05T05:09:41.403Z,3.47
2022-11-05T05:12:09.342Z,4.65
2022-11-05T05:14:36.147Z,4.72
2022-11-05T05:17:02.704Z,6.40
2022-11-05T05:19:29.259Z,9.98
2022-11-05T05:21:55.818Z,8.93
2022-11-05T05:24:22.416Z,5.97
2022-11-05T05:26:49.873Z,4.97
2022-11-05T05:29:18.150Z,6.35
2022-11-05T05:31:44.763Z,7.93
2022-11-05T05:34:12.949Z,4.72
2022-11-05T05:36:39.784Z,8.18
2022-11-05T05:39:07.713Z,4.85
2022-11-05T05:41:34.471Z,5.45
2022-11-05T05:44:01.025Z,7.28
2022-11-05T05:46:28.929Z,6.03
2022-11-05T05:48:55.487Z,4.93
2022-11-05T05:51:22.075Z,5.57
2022-11-05T05:53:48.614Z,4.45
2022-11-05T05:56:15.262Z,6.15
2022-11-05T05:58:41.897Z,7.97
2022-11-05T06:01:17.173Z,5.28
2022-11-05T06:03:47.141Z,4.82
2022-11-05T06:06:15.009Z,4.63
2022-11-05T06:08:42.172Z,5.15
2022-11-05T06:11:08.896Z,6.35
2022-11-05T06:13:36.140Z,4.93
2022-11-05T06:16:04.071Z,7.30
2022-11-05T06:18:31.397Z,5.35
2022-11-05T06:21:03.068Z,3.83
2022-11-05T06:23:30.569Z,5.63
2022-11-05T06:25:59.765Z,4.63
2022-11-05T06:28:26.495Z,4.15
2022-11-05T06:30:53.102Z,3.47
2022-11-05T06:33:19.655Z,3.83
2022-11-05T06:35:46.217Z,4.07
2022-11-05T06:38:14.262Z,4.80
2022-11-05T06:40:40.926Z,4.57
2022-11-05T06:43:07.465Z,3.50
2022-11-05T06:45:34.018Z,4.07
2022-11-05T06:48:00.718Z,4.95
2022-11-05T06:50:28.320Z,6.90
2022-11-05T06:52:55.623Z,5.30
2022-11-05T06:55:23.826Z,5.90
2022-11-05T06:57:50.486Z,7.75
2022-11-05T07:00:17.608Z,3.35
2022-11-05T07:02:44.193Z,4.97
2022-11-05T07:05:10.726Z,4.88
2022-11-05T07:07:37.290Z,13.77
2022-11-05T07:10:04.551Z,3.70
2022-11-05T07:12:32.633Z,5.03
2022-11-05T07:14:59.280Z,4.07
2022-11-05T07:17:26.040Z,3.72
2022-11-05T07:19:52.572Z,5.55
2022-11-05T07:22:19.149Z,5.75
2022-11-05T07:24:45.729Z,4.47
2022-11-05T07:27:12.285Z,6.45
2022-11-05T07:29:40.214Z,3.75
2022-11-05T07:32:06.852Z,3.75
2022-11-05T07:34:33.588Z,5.47
2022-11-05T07:37:00.154Z,4.32
2022-11-05T07:39:26.663Z,8.13
2022-11-05T07:41:53.271Z,9.23
2022-11-05T07:44:19.835Z,11.18
2022-11-05T07:46:47.749Z,13.55
2022-11-05T07:49:23.601Z,9.68
2022-11-05T07:51:50.222Z,9.68
2022-11-05T07:54:16.764Z,8.00
2022-11-05T07:56:43.377Z,13.77
2022-11-05T07:59:09.945Z,11.63
2022-11-05T08:01:36.700Z,10.48
2022-11-05T08:04:04.888Z,11.35
2022-11-05T08:06:31.616Z,8.65
2022-11-05T08:08:58.217Z,8.15
2022-11-05T08:11:24.849Z,8.68
2022-11-05T08:13:51.388Z,8.18
2022-11-05T08:16:17.948Z,8.45
2022-11-05T08:18:44.493Z,9.93
2022-11-05T08:21:12.403Z,7.88
2022-11-05T08:23:38.913Z,11.57
2022-11-05T08:26:05.754Z,9.73
2022-11-05T08:28:32.323Z,11.45
2022-11-05T08:30:59.063Z,11.30
2022-11-05T08:33:26.409Z,11.27
2022-11-05T08:35:53.066Z,12.20
2022-11-05T08:38:21.033Z,11.18
2022-11-05T08:40:55.666Z,15.60
2022-11-05T08:43:22.383Z,16.20
2022-11-05T08:45:49.355Z,12.52
2022-11-05T08:48:17.570Z,11.35
2022-11-05T08:50:45.932Z,11.15
2022-11-05T08:53:13.690Z,13.77
2022-11-05T08:55:41.890Z,15.65
2022-11-05T08:58:11.258Z,12.73
2022-11-05T09:00:38.852Z,15.00
2022-11-05T09:03:07.168Z,12.02
2022-11-05T09:05:35.796Z,13.38
2022-11-05T09:08:02.378Z,13.38
2022-11-05T09:10:28.951Z,10.30
2022-11-05T09:12:56.922Z,12.00
2022-11-05T09:15:23.808Z,13.40
2022-11-05T09:17:50.645Z,14.55
2022-11-05T09:20:17.225Z,11.77
2022-11-05T09:22:43.861Z,12.68
2022-11-05T09:25:10.691Z,14.85
2022-11-05T09:27:37.291Z,12.75
2022-11-05T09:30:06.299Z,14.70
2022-11-05T09:32:33.638Z,14.80
2022-11-05T09:35:00.194Z,12.77
2022-11-05T09:37:26.946Z,11.93
2022-11-05T09:39:53.783Z,12.40
2022-11-05T09:42:23.845Z,12.18
2022-11-05T09:44:54.663Z,14.27
2022-11-05T09:47:29.270Z,11.02
2022-11-05T09:49:58.798Z,11.77
2022-11-05T09:52:27.814Z,15.25
2022-11-05T09:54:55.584Z,13.10
2022-11-05T09:57:25.552Z,11.88
2022-11-05T09:59:54.332Z,12.32
2022-11-05T10:02:26.648Z,14.55
2022-11-05T10:04:56.788Z,10.40
2022-11-05T10:07:26.252Z,15.13
2022-11-05T10:09:57.518Z,15.00
2022-11-05T10:12:28.537Z,12.73
2022-11-05T10:15:04.711Z,13.48
2022-11-05T10:17:39.064Z,16.15
2022-11-05T10:20:14.205Z,13.65
2022-11-05T10:22:43.961Z,16.55
2022-11-05T10:25:17.729Z,12.65
2022-11-05T10:27:50.261Z,13.18
2022-11-05T10:30:16.865Z,13.55
2022-11-05T10:32:46.659Z,11.63
2022-11-05T10:35:15.769Z,12.68
2022-11-05T10:37:42.357Z,10.25
2022-11-05T10:40:16.774Z,10.48
2022-11-05T10:42:54.219Z,14.32
2022-11-05T10:45:29.945Z,14.57
2022-11-05T10:48:16.579Z,10.88
2022-11-05T10:50:44.249Z,10.73
2022-11-05T10:53:14.641Z,11.38
2022-11-05T10:55:44.107Z,12.10
2022-11-05T10:58:19.923Z,10.80
2022-11-05T11:01:01.685Z,11.27
2022-11-05T11:03:35.414Z,10.02
2022-11-05T11:06:05.110Z,12.93
2022-11-05T11:08:35.002Z,12.07
2022-11-05T11:11:03.814Z,10.15
2022-11-05T11:13:49.339Z,12.13
2022-11-05T11:16:20.085Z,9.75
2022-11-05T11:18:53.207Z,10.98
2022-11-05T11:21:20.938Z,12.00
2022-11-05T11:23:54.778Z,11.07
2022-11-05T11:26:23.346Z,9.52
2022-11-05T11:28:57.572Z,8.85
2022-11-05T11:31:26.504Z,8.27
2022-11-05T11:33:58.304Z,8.55
2022-11-05T11:36:31.582Z,8.60
2022-11-05T11:38:59.597Z,10.57
2022-11-05T11:41:30.798Z,11.50
2022-11-05T11:44:02.899Z,14.13
2022-11-05T11:46:32.739Z,10.05
2022-11-05T11:49:01.071Z,10.25
2022-11-05T11:51:33.399Z,9.80
2022-11-05T11:54:01.690Z,10.50
2022-11-05T11:56:29.103Z,8.57
2022-11-05T11:58:57.675Z,12.85
2022-11-05T12:02:06.435Z,11.35
2022-11-05T12:05:10.107Z,10.55
2022-11-05T12:07:48.609Z,9.80
2022-11-05T12:10:28.287Z,7.85
2022-11-05T12:13:11.466Z,10.40
2022-11-05T12:15:49.046Z,8.38
2022-11-05T12:18:25.123Z,7.85
2022-11-05T12:21:05.641Z,8.00
2022-11-05T12:23:47.310Z,9.52
2022-11-05T12:26:23.345Z,9.63
2022-11-05T12:31:58.732Z,6.68
2022-11-05T12:34:42.324Z,11.00
2022-11-05T12:37:22.836Z,8.82
2022-11-05T12:40:01.255Z,9.10
2022-11-05T12:42:41.979Z,9.27
2022-11-05T12:45:22.436Z,10.82
2022-11-05T12:48:16.072Z,9.80
2022-11-05T12:50:45.181Z,5.60
2022-11-05T12:53:35.992Z,8.98
2022-11-05T12:56:11.209Z,6.45
2022-11-05T12:58:42.082Z,7.60
2022-11-05T13:01:13.333Z,9.88
2022-11-05T13:03:44.301Z,11.32
2022-11-05T13:06:14.863Z,14.40
2022-11-05T13:08:50.896Z,5.82
2022-11-05T13:11:23.107Z,6.50
2022-11-05T13:14:06.380Z,6.78
2022-11-05T13:16:35.912Z,8.18
2022-11-05T13:19:12.356Z,6.50
2022-11-05T13:21:40.485Z,6.25
2022-11-05T13:24:16.493Z,5.75
2022-11-05T13:26:48.245Z,13.18
2022-11-05T13:29:19.279Z,8.85
2022-11-05T13:31:51.857Z,10.05
2022-11-05T13:34:18.412Z,13.38
2022-11-05T13:36:52.407Z,7.88
2022-11-05T13:39:24.711Z,6.57
2022-11-05T13:42:07.818Z,7.65
2022-11-05T13:45:02.497Z,6.03
2022-11-05T13:47:55.814Z,9.18
2022-11-05T13:50:44.751Z,8.00
2022-11-05T13:53:58.069Z,10.63
2022-11-05T13:56:50.197Z,7.05
2022-11-05T13:59:58.483Z,5.65
2022-11-05T14:02:28.615Z,7.63
2022-11-05T14:05:01.009Z,6.00
2022-11-05T14:07:30.180Z,7.53
2022-11-05T14:09:59.510Z,10.85
2022-11-05T14:12:31.087Z,6.97
2022-11-05T14:15:02.751Z,6.93
2022-11-05T14:17:34.175Z,8.00
2022-11-05T14:20:25.695Z,8.18
2022-11-05T14:22:53.152Z,7.57
2022-11-05T14:25:59.225Z,9.48
2022-11-05T14:28:44.335Z,7.80
2022-11-05T14:31:47.357Z,7.35
2022-11-05T14:34:22.595Z,9.48
2022-11-05T14:37:14.000Z,8.02
2022-11-05T14:39:41.431Z,8.00
2022-11-05T14:42:15.659Z,6.93
2022-11-05T14:45:00.637Z,6.40
2022-11-05T14:47:30.940Z,8.52
2022-11-05T14:50:01.787Z,7.18
2022-11-05T14:52:28.839Z,10.63
2022-11-05T14:54:57.838Z,6.53
2022-11-05T14:58:01.475Z,9.82
2022-11-05T15:00:49.356Z,9.25
2022-11-05T15:04:02.913Z,6.43
2022-11-05T15:06:32.947Z,5.85
2022-11-05T15:09:25.390Z,5.80
2022-11-05T15:12:02.585Z,6.88
2022-11-05T15:14:33.667Z,7.97
2022-11-05T15:17:14.023Z,8.83
2022-11-05T15:19:42.132Z,6.60
2022-11-05T15:22:20.034Z,9.20
2022-11-05T15:24:47.576Z,11.60
2022-11-05T15:27:19.696Z,10.90
2022-11-05T15:29:46.387Z,11.88
2022-11-05T15:32:17.879Z,11.65
2022-11-05T15:34:52.171Z,12.73
2022-11-05T15:37:22.069Z,12.48
2022-11-05T15:39:50.386Z,7.18
2022-11-05T15:42:19.120Z,11.93
2022-11-05T15:44:47.368Z,11.50
2022-11-05T15:47:22.543Z,11.05
2022-11-05T15:49:51.904Z,12.63
2022-11-05T15:52:20.827Z,10.15
2022-11-05T15:55:07.461Z,12.85
2022-11-05T15:57:39.252Z,11.88
2022-11-05T16:00:17.550Z,13.13
2022-11-05T16:02:51.800Z,11.65
2022-11-05T16:05:18.605Z,14.80
2022-11-05T16:07:46.839Z,9.57
2022-11-05T16:10:19.219Z,12.07
2022-11-05T16:12:45.866Z,14.00
2022-11-05T16:15:22.840Z,13.18
2022-11-05T16:17:54.475Z,13.95
2022-11-05T16:20:25.056Z,14.88
2022-11-05T16:22:53.800Z,8.65
2022-11-05T16:25:23.669Z,13.02
2022-11-05T16:27:50.269Z,15.95
2022-11-05T16:30:18.386Z,11.68
2022-11-05T16:32:45.584Z,16.98
2022-11-05T16:35:19.742Z,14.35
2022-11-05T16:37:51.833Z,9.90
2022-11-05T16:40:21.511Z,9.32
2022-11-05T16:42:48.840Z,7.55
2022-11-05T16:45:17.907Z,10.00
2022-11-05T16:47:45.436Z,10.32
2022-11-05T16:50:23.399Z,8.05
2022-11-05T16:52:50.731Z,10.25
2022-11-05T16:55:18.533Z,12.38
2022-11-05T16:57:48.737Z,9.73
2022-11-05T17:00:18.005Z,9.98
2022-11-05T17:02:45.175Z,11.57
2022-11-05T17:05:19.663Z,7.63
2022-11-05T17:07:46.934Z,8.80
2022-11-05T17:10:13.585Z,14.48
2022-11-05T17:12:41.012Z,12.85
2022-11-05T17:15:18.361Z,12.00
2022-11-05T17:17:45.697Z,12.07
2022-11-05T17:20:20.537Z,8.60
2022-11-05T17:22:48.507Z,13.10
2022-11-05T17:25:15.134Z,13.32
2022-11-05T17:27:41.665Z,8.95
2022-11-05T17:30:10.252Z,8.48
2022-11-05T17:32:36.874Z,11.82
2022-11-05T17:35:03.997Z,9.75
2022-11-05T17:37:30.620Z,11.88
2022-11-05T17:39:58.665Z,9.35
2022-11-05T17:42:25.222Z,10.70
2022-11-05T17:44:51.762Z,7.15
2022-11-05T17:47:18.292Z,9.90
2022-11-05T17:49:44.839Z,10.80
2022-11-05T17:52:11.452Z,13.45
2022-11-05T17:54:38.012Z,7.43
2022-11-05T17:57:05.907Z,7.43
2022-11-05T17:59:32.501Z,9.85
2022-11-05T18:01:59.108Z,9.27
2022-11-05T18:04:25.763Z,6.28
2022-11-05T18:06:52.331Z,7.85
2022-11-05T18:09:18.939Z,8.18
2022-11-05T18:11:45.742Z,5.85
2022-11-05T18:14:13.633Z,5.63
2022-11-05T18:16:40.199Z,7.85
2022-11-05T18:19:06.763Z,5.88
2022-11-05T18:21:33.331Z,6.82
2022-11-05T18:24:03.152Z,7.53
2022-11-05T18:26:29.687Z,5.88
2022-11-05T18:28:56.228Z,6.15
2022-11-05T18:31:24.103Z,7.47
2022-11-05T18:33:51.028Z,6.82
2022-11-05T18:36:17.958Z,6.25
2022-11-05T18:38:44.519Z,6.15
2022-11-05T18:41:11.077Z,7.38
2022-11-05T18:43:37.616Z,6.55
2022-11-05T18:46:04.232Z,5.80
2022-11-05T18:48:32.197Z,6.40
2022-11-05T18:51:01.833Z,6.82
2022-11-05T18:53:28.819Z,6.63
2022-11-05T18:55:55.357Z,5.95
2022-11-05T18:58:21.866Z,6.18
2022-11-05T19:00:48.402Z,6.47
2022-11-05T19:03:14.914Z,5.82
2022-11-05T19:05:42.818Z,6.32
2022-11-05T19:08:09.601Z,7.80
2022-11-05T19:10:39.564Z,5.97
2022-11-05T19:13:06.119Z,6.63
2022-11-05T19:15:32.711Z,6.90
2022-11-05T19:17:59.291Z,4.85
2022-11-05T19:20:26.007Z,8.43
2022-11-05T19:22:53.895Z,5.97
2022-11-05T19:25:20.512Z,8.00
2022-11-05T19:27:47.337Z,6.53
2022-11-05T19:30:13.998Z,7.40
2022-11-05T19:32:40.559Z,9.00
2022-11-05T19:35:07.798Z,9.27
2022-11-05T19:37:34.411Z,8.10
2022-11-05T19:40:02.393Z,9.38
2022-11-05T19:42:28.986Z,7.07
2022-11-05T19:44:55.666Z,5.78
2022-11-05T19:47:22.208Z,7.05
2022-11-05T19:49:48.745Z,7.65
2022-11-05T19:52:15.326Z,11.60
2022-11-05T19:54:42.013Z,8.65
2022-11-05T19:57:09.907Z,8.07
2022-11-05T19:59:36.431Z,5.85
2022-11-05T20:02:03.198Z,7.65
2022-11-05T20:04:30.058Z,6.53
2022-11-05T20:06:56.683Z,8.63
2022-11-05T20:09:23.596Z,5.55
2022-11-05T20:11:51.025Z,7.80
2022-11-05T20:14:18.905Z,7.00
2022-11-05T20:16:46.356Z,6.70
2022-11-05T20:19:15.559Z,10.07
2022-11-05T20:21:42.606Z,9.00
2022-11-05T20:24:11.222Z,6.18
2022-11-05T20:26:37.873Z,7.03
2022-11-05T20:29:04.463Z,5.85
2022-11-05T20:31:32.689Z,6.88
2022-11-05T20:33:59.527Z,7.10
2022-11-05T20:36:26.641Z,6.55
2022-11-05T20:38:55.670Z,8.05
2022-11-05T20:41:22.530Z,7.63
2022-11-05T20:43:49.760Z,5.25
2022-11-05T20:46:19.091Z,9.90
2022-11-05T20:48:47.140Z,10.27
2022-11-05T20:51:19.388Z,7.18
2022-11-05T20:53:46.663Z,6.97
2022-11-05T20:56:16.969Z,5.60
2022-11-05T20:58:43.955Z,5.35
2022-11-05T21:01:12.201Z,6.85
2022-11-05T21:03:39.080Z,6.60
2022-11-05T21:06:07.361Z,5.90
2022-11-05T21:08:34.298Z,5.47
2022-11-05T21:11:01.127Z,6.72
2022-11-05T21:13:27.786Z,5.68
2022-11-05T21:15:56.483Z,5.95
2022-11-05T21:18:25.102Z,5.63
2022-11-05T21:20:52.363Z,11.05
2022-11-05T21:23:20.301Z,6.82
2022-11-05T21:25:47.370Z,10.02
2022-11-05T21:28:15.659Z,5.45
2022-11-05T21:30:44.257Z,7.63
2022-11-05T21:33:11.574Z,5.93
2022-11-05T21:35:39.390Z,6.80
2022-11-05T21:38:06.010Z,8.05
2022-11-05T21:40:33.966Z,8.10
2022-11-05T21:43:00.506Z,5.53
2022-11-05T21:45:27.192Z,6.88
2022-11-05T21:47:53.797Z,12.05
2022-11-05T21:50:22.053Z,5.63
2022-11-05T21:52:48.731Z,7.85
2022-11-05T21:55:15.319Z,7.32
2022-11-05T21:57:43.248Z,6.88
2022-11-05T22:00:11.279Z,5.97
2022-11-05T22:02:38.014Z,6.78
2022-11-05T22:05:06.194Z,11.02
2022-11-05T22:07:34.649Z,7.90
2022-11-05T22:10:02.165Z,5.53
2022-11-05T22:12:29.120Z,7.18
2022-11-05T22:14:57.112Z,7.65
2022-11-05T22:17:24.250Z,9.77
2022-11-05T22:19:51.135Z,7.45
2022-11-05T22:22:17.710Z,9.93
2022-11-05T22:24:44.660Z,8.02
2022-11-05T22:27:13.515Z,10.18
2022-11-05T22:29:40.253Z,7.22
2022-11-05T22:32:10.273Z,7.25
2022-11-05T22:34:36.861Z,7.80
2022-11-05T22:37:03.617Z,8.77
2022-11-05T22:39:30.212Z,8.23
2022-11-05T22:41:57.581Z,6.82
2022-11-05T22:44:25.676Z,10.27
2022-11-05T22:46:52.839Z,11.27
2022-11-05T22:49:21.058Z,12.55
2022-11-05T22:51:47.735Z,8.35
2022-11-05T22:54:14.308Z,10.60
2022-11-05T22:56:42.665Z,10.48
2022-11-05T22:59:12.583Z,7.43
2022-11-05T23:01:39.436Z,8.52
2022-11-05T23:04:06.074Z,12.95
2022-11-05T23:06:34.285Z,7.63
2022-11-05T23:09:01.796Z,10.13
2022-11-05T23:11:28.368Z,9.20
2022-11-05T23:13:55.966Z,8.80
2022-11-05T23:16:22.537Z,9.30
2022-11-05T23:18:49.088Z,11.43
2022-11-05T23:21:19.224Z,11.25
2022-11-05T23:23:50.676Z,8.18
2022-11-05T23:26:17.244Z,9.23
2022-11-05T23:28:44.215Z,7.40
2022-11-05T23:31:10.759Z,11.05
2022-11-05T23:33:37.353Z,12.52
2022-11-05T23:36:04.198Z,9.82
2022-11-05T23:38:30.736Z,9.88
2022-11-05T23:41:01.197Z,12.45
2022-11-05T23:43:27.793Z,7.60
2022-11-05T23:45:54.433Z,8.52
2022-11-05T23:48:25.969Z,9.55
2022-11-05T23:50:58.472Z,8.75
2022-11-05T23:53:25.948Z,12.13
2022-11-05T23:55:52.783Z,9.10
2022-11-05T23:58:20.780Z,9.30
